Terminal Aerodrome Forecast
Issued by NWS

Home | Current Version | Previous Version | Text Only | Print | Product List | Glossary On
Versions: 1 2 3 4 5 6 7 8 9 10 11 12 13 14 15 16 17
000
FTUS44 KLZK 302300
TAFPBF
TAF
KPBF 302330Z 3100/3124 20004KT P6SM BKN090
     FM310230 30010KT P6SM SCT060
     FM311000 33008KT P6SM SCT035
     FM311500 35012G22KT P6SM SCT040=

USA.gov is the U.S. government's official web portal to all federal, state and local government web resources and services.